Time;durP1;ratioP1;P1;durP2;ratioP2;P2;SDS_P1;SDS_P2;PMS_P1;PMS_P2;Temp;Humidity;BMP_temperature;BMP_pressure;BME280_temperature;BME280_humidity;BME280_pressure;Samples;Min_cycle;Max_cycle;Signal;HPM_P1;HPM_P2
2022/04/30 00:02:14;;;;;;;11.10;9.93;;;12.90;1.00;;;;;;5103850;28;20196;-55
2022/04/30 00:04:45;;;;;;;8.43;7.53;;;12.80;1.00;;;;;;5105683;28;20654;-55
2022/04/30 00:07:16;;;;;;;8.77;7.57;;;12.80;1.00;;;;;;5102265;28;20440;-55
2022/04/30 00:09:42;;;;;;;10.37;9.37;;;12.60;1.00;;;;;;5098207;28;20532;-55
2022/04/30 00:12:12;;;;;;;11.53;8.63;;;12.60;1.00;;;;;;5099882;28;20484;-53
2022/04/30 00:14:39;;;;;;;13.23;8.20;;;12.60;1.00;;;;;;5107090;28;20443;-55
2022/04/30 00:17:06;;;;;;;11.43;8.20;;;12.70;1.00;;;;;;5102379;28;20478;-55
2022/04/30 00:19:31;;;;;;;10.37;7.60;;;12.60;1.00;;;;;;5105824;28;20525;-56
2022/04/30 00:21:57;;;;;;;11.77;8.37;;;12.60;1.00;;;;;;5085821;28;20455;-56
2022/04/30 00:24:24;;;;;;;9.43;8.47;;;12.50;1.00;;;;;;5103261;28;20182;-56
2022/04/30 00:26:50;;;;;;;9.83;7.40;;;12.50;1.00;;;;;;5103491;28;20797;-54
2022/04/30 00:29:16;;;;;;;9.03;8.13;;;12.50;1.00;;;;;;5101555;28;20492;-57
2022/04/30 00:31:42;;;;;;;8.60;7.80;;;12.50;1.00;;;;;;5103389;28;20195;-54
2022/04/30 00:34:08;;;;;;;9.97;7.60;;;12.50;1.00;;;;;;5105111;28;20440;-57
2022/04/30 00:36:34;;;;;;;9.03;8.23;;;12.50;1.00;;;;;;5094592;28;20445;-56
2022/04/30 00:38:59;;;;;;;10.13;7.97;;;12.40;1.00;;;;;;5099518;28;20455;-55
2022/04/30 00:41:25;;;;;;;10.60;8.03;;;12.40;1.00;;;;;;5099960;28;20236;-55
2022/04/30 00:43:53;;;;;;;11.57;8.00;;;12.30;1.00;;;;;;5098009;28;20229;-55
2022/04/30 00:46:20;;;;;;;8.40;7.60;;;12.40;1.00;;;;;;5099107;28;20528;-55
2022/04/30 00:48:46;;;;;;;8.40;7.60;;;12.30;1.00;;;;;;5099541;28;20447;-54
2022/04/30 00:51:14;;;;;;;9.27;8.37;;;12.30;1.00;;;;;;5091994;28;20444;-55
2022/04/30 00:53:41;;;;;;;9.17;8.27;;;12.20;1.00;;;;;;5099337;28;20236;-58
2022/04/30 00:56:11;;;;;;;12.03;8.40;;;12.20;1.00;;;;;;5103762;28;20451;-56
2022/04/30 00:58:39;;;;;;;8.77;7.87;;;12.10;1.00;;;;;;5101885;28;20472;-56
2022/04/30 01:01:05;;;;;;;8.67;7.77;;;12.10;1.00;;;;;;5098857;28;20512;-55
2022/04/30 01:03:31;;;;;;;9.67;8.03;;;12.00;1.00;;;;;;5107536;28;20456;-54
2022/04/30 01:05:58;;;;;;;8.97;7.83;;;12.00;1.00;;;;;;5074911;28;20195;-56
2022/04/30 01:08:27;;;;;;;8.10;7.30;;;12.10;1.00;;;;;;5094933;28;20187;-53
2022/04/30 01:10:54;;;;;;;9.10;6.80;;;12.10;1.00;;;;;;5094682;28;20564;-56
2022/04/30 01:13:20;;;;;;;10.00;7.60;;;12.10;1.00;;;;;;5092437;28;20539;-56
2022/04/30 01:15:46;;;;;;;9.10;8.20;;;12.00;1.00;;;;;;5105158;28;20542;-55
2022/04/30 01:18:12;;;;;;;8.33;7.57;;;12.00;1.00;;;;;;5090047;28;20481;-57
2022/04/30 01:20:42;;;;;;;9.33;8.43;;;11.90;1.00;;;;;;5097709;28;20480;-55
2022/04/30 01:23:08;;;;;;;10.23;8.17;;;11.90;1.00;;;;;;5103709;28;20498;-55
2022/04/30 01:25:34;;;;;;;8.67;7.87;;;11.90;1.00;;;;;;5099147;28;20944;-56
2022/04/30 01:28:01;;;;;;;8.33;7.50;;;12.00;1.00;;;;;;5089194;28;20455;-54
2022/04/30 01:30:27;;;;;;;11.93;8.63;;;11.90;1.00;;;;;;5091282;28;20531;-53
2022/04/30 01:38:21;;;;;;;8.57;7.30;;;11.80;1.00;;;;;;5096795;28;20486;-55
2022/04/30 01:40:48;;;;;;;8.37;7.50;;;11.80;1.00;;;;;;5093932;28;20440;-53
2022/04/30 01:43:14;;;;;;;9.10;7.07;;;11.70;1.00;;;;;;5101959;28;20222;-54
2022/04/30 01:45:40;;;;;;;8.40;7.60;;;11.70;1.00;;;;;;5096839;28;20448;-56
2022/04/30 01:48:12;;;;;;;8.67;7.87;;;11.70;1.00;;;;;;5103082;28;20481;-54
2022/04/30 01:50:38;;;;;;;9.20;8.20;;;11.70;1.00;;;;;;5108390;28;20467;-54
2022/04/30 01:53:03;;;;;;;8.80;8.00;;;11.70;1.00;;;;;;5101517;28;20452;-56
2022/04/30 01:55:29;;;;;;;10.27;7.90;;;11.70;1.00;;;;;;5099864;28;20616;-54
2022/04/30 01:57:56;;;;;;;8.27;7.47;;;11.80;1.00;;;;;;5105199;28;20226;-56
2022/04/30 02:00:23;;;;;;;8.30;7.37;;;11.70;1.00;;;;;;5109906;28;20454;-55
2022/04/30 02:02:50;;;;;;;9.20;6.60;;;11.70;1.00;;;;;;5101760;28;20444;-56
2022/04/30 02:05:17;;;;;;;9.33;7.70;;;11.60;1.00;;;;;;5104323;28;20841;-57
2022/04/30 02:07:49;;;;;;;10.13;7.83;;;11.50;1.00;;;;;;5094021;28;20474;-56
2022/04/30 02:10:18;;;;;;;11.53;8.03;;;11.50;1.00;;;;;;5098881;28;21006;-56
2022/04/30 02:12:44;;;;;;;8.63;7.20;;;11.40;1.00;;;;;;5101672;28;21028;-55
2022/04/30 02:15:14;;;;;;;8.80;7.80;;;11.40;1.00;;;;;;5106509;28;20957;-55
2022/04/30 02:17:41;;;;;;;7.67;6.87;;;11.40;1.00;;;;;;5100495;28;20553;-56
2022/04/30 02:23:08;;;;;;;9.63;7.77;;;11.40;1.00;;;;;;5068755;28;20451;-55
2022/04/30 02:25:35;;;;;;;8.90;8.00;;;11.40;1.00;;;;;;5100690;28;20435;-55
2022/04/30 02:28:04;;;;;;;8.40;7.50;;;11.30;1.00;;;;;;5100819;28;20459;-55
2022/04/30 02:30:36;;;;;;;9.30;8.33;;;11.30;1.00;;;;;;5110078;28;20455;-55
2022/04/30 02:33:04;;;;;;;8.00;7.20;;;11.30;1.00;;;;;;5106734;28;20470;-55
2022/04/30 02:35:34;;;;;;;9.20;8.20;;;11.30;1.00;;;;;;5106066;28;20456;-55
2022/04/30 02:38:01;;;;;;;11.60;8.07;;;11.20;1.00;;;;;;5106513;28;20476;-55
2022/04/30 02:40:28;;;;;;;8.80;7.23;;;11.10;1.00;;;;;;5110494;28;20444;-53
2022/04/30 02:42:54;;;;;;;13.27;8.90;;;11.10;1.00;;;;;;5104102;28;20979;-55
2022/04/30 02:45:22;;;;;;;9.17;8.27;;;10.90;1.00;;;;;;5088801;28;20439;-56
2022/04/30 02:47:56;;;;;;;9.27;8.17;;;11.00;1.00;;;;;;5081179;28;20455;-53
2022/04/30 02:50:23;;;;;;;9.43;7.97;;;10.90;1.00;;;;;;5099173;28;20448;-55
2022/04/30 02:52:50;;;;;;;8.90;8.10;;;10.90;1.00;;;;;;5100823;28;20451;-55
2022/04/30 02:55:16;;;;;;;10.90;8.60;;;10.90;1.00;;;;;;5105602;28;20450;-56
2022/04/30 03:00:39;;;;;;;9.23;8.33;;;10.90;1.00;;;;;;5107922;28;20201;-56
2022/04/30 03:03:09;;;;;;;10.43;9.03;;;10.90;1.00;;;;;;5101319;28;20436;-55
2022/04/30 03:05:40;;;;;;;10.00;9.00;;;10.90;1.00;;;;;;5097545;28;20798;-55
2022/04/30 03:08:26;;;;;;;9.40;8.50;;;10.90;1.00;;;;;;5100583;28;20463;-54
2022/04/30 03:10:54;;;;;;;10.47;9.07;;;11.00;1.00;;;;;;5087486;28;21053;-55
2022/04/30 03:13:20;;;;;;;10.70;9.50;;;11.00;1.00;;;;;;5087384;28;20534;-55
2022/04/30 03:15:53;;;;;;;8.93;8.03;;;11.00;1.00;;;;;;5086158;28;20443;-54
2022/04/30 03:23:39;;;;;;;11.30;9.53;;;13.70;1.00;;;;;;5098198;28;20440;-55
2022/04/30 03:26:06;;;;;;;9.77;8.87;;;10.90;1.00;;;;;;5100861;28;20448;-54
2022/04/30 03:28:37;;;;;;;11.70;8.20;;;10.90;1.00;;;;;;5093919;28;20456;-57
2022/04/30 03:31:08;;;;;;;12.90;8.27;;;10.90;1.00;;;;;;5101970;28;20437;-55
2022/04/30 03:33:34;;;;;;;9.03;8.03;;;10.90;1.00;;;;;;5093216;28;20475;-53
2022/04/30 03:36:00;;;;;;;10.10;8.57;;;10.80;1.00;;;;;;5083204;28;20445;-54
2022/04/30 03:38:25;;;;;;;9.07;8.17;;;10.80;1.00;;;;;;5102458;28;20206;-55
2022/04/30 03:40:51;;;;;;;11.20;8.60;;;10.80;1.00;;;;;;5099620;28;20978;-56
2022/04/30 03:43:18;;;;;;;11.20;8.50;;;10.70;1.00;;;;;;5105099;28;20305;-54
2022/04/30 03:45:44;;;;;;;11.03;8.40;;;10.70;1.00;;;;;;5104320;28;20195;-54
2022/04/30 03:48:10;;;;;;;8.60;7.70;;;10.60;1.00;;;;;;5103654;28;20445;-56
2022/04/30 03:50:36;;;;;;;12.67;7.97;;;10.60;1.00;;;;;;5098329;28;20464;-56
2022/04/30 03:53:02;;;;;;;9.43;8.00;;;10.60;1.00;;;;;;5103069;28;20449;-53
2022/04/30 03:55:28;;;;;;;10.33;8.70;;;10.40;1.00;;;;;;5094433;28;20468;-55
2022/04/30 03:57:56;;;;;;;11.07;7.90;;;10.50;1.00;;;;;;5093669;28;20476;-56
2022/04/30 04:00:23;;;;;;;8.70;7.77;;;10.40;1.00;;;;;;5092940;28;20921;-52
2022/04/30 04:02:50;;;;;;;10.83;9.73;;;10.40;1.00;;;;;;5092468;28;20449;-56
2022/04/30 04:05:17;;;;;;;12.30;8.90;;;10.50;1.00;;;;;;5102851;28;20448;-55
2022/04/30 04:07:43;;;;;;;9.17;8.27;;;10.40;1.00;;;;;;5101124;28;20827;-55
2022/04/30 04:10:10;;;;;;;8.20;7.20;;;10.40;1.00;;;;;;5101183;28;21729;-55
2022/04/30 04:12:39;;;;;;;8.90;8.07;;;10.50;1.00;;;;;;5098947;28;20452;-55
2022/04/30 04:17:51;;;;;;;14.13;8.87;;;;;;;;;;5101238;28;20470;-54
2022/04/30 04:20:18;;;;;;;12.30;8.30;;;10.70;1.00;;;;;;5103311;28;20546;-56
2022/04/30 04:22:44;;;;;;;11.20;8.70;;;10.70;1.00;;;;;;5099424;28;20984;-54
2022/04/30 04:27:55;;;;;;;12.27;8.80;;;10.80;1.00;;;;;;5102863;28;20820;-53
2022/04/30 04:30:28;;;;;;;9.17;8.27;;;10.80;1.00;;;;;;5098454;28;20447;-54
2022/04/30 04:32:55;;;;;;;10.47;8.40;;;10.80;1.00;;;;;;5101612;28;20967;-54
2022/04/30 04:35:20;;;;;;;8.77;7.87;;;11.00;1.00;;;;;;5083323;28;20451;-57
2022/04/30 04:37:46;;;;;;;9.70;8.37;;;11.10;1.00;;;;;;5096521;28;20829;-54
2022/04/30 04:40:13;;;;;;;8.80;7.67;;;11.00;1.00;;;;;;5075846;28;20242;-56
2022/04/30 04:42:43;;;;;;;10.33;8.37;;;11.00;1.00;;;;;;5103957;28;20549;-55
2022/04/30 04:45:10;;;;;;;9.30;8.40;;;11.00;1.00;;;;;;5094023;28;20480;-56
2022/04/30 04:47:39;;;;;;;10.20;8.03;;;11.10;1.00;;;;;;5103895;28;20498;-53
2022/04/30 04:50:06;;;;;;;10.10;8.30;;;11.10;1.00;;;;;;5106839;28;20828;-54
2022/04/30 04:52:32;;;;;;;9.30;8.33;;;11.10;1.00;;;;;;5097919;28;20443;-56
2022/04/30 04:54:58;;;;;;;9.27;8.27;;;11.20;1.00;;;;;;5101900;28;20916;-53
2022/04/30 04:57:24;;;;;;;8.70;7.80;;;11.20;1.00;;;;;;5102585;28;20205;-57
2022/04/30 04:59:49;;;;;;;11.30;8.40;;;11.20;1.00;;;;;;5105782;28;20447;-56
2022/04/30 05:02:16;;;;;;;9.00;8.10;;;11.20;1.00;;;;;;5095075;28;20191;-56
2022/04/30 05:04:42;;;;;;;7.53;6.83;;;11.40;1.00;;;;;;5098650;28;20186;-55
2022/04/30 05:07:07;;;;;;;9.43;8.50;;;11.40;1.00;;;;;;5107787;28;20444;-54
2022/04/30 05:09:33;;;;;;;7.80;7.10;;;11.50;1.00;;;;;;5097016;28;20199;-54
2022/04/30 05:12:01;;;;;;;8.73;7.47;;;11.50;1.00;;;;;;5099563;28;20186;-54
2022/04/30 05:14:34;;;;;;;8.40;7.60;;;11.60;1.00;;;;;;5104637;28;20228;-54
2022/04/30 05:17:00;;;;;;;8.80;7.87;;;11.50;1.00;;;;;;5082791;28;20455;-54
2022/04/30 05:19:26;;;;;;;12.13;8.43;;;11.50;1.00;;;;;;5100236;28;20957;-56
2022/04/30 05:21:52;;;;;;;11.90;8.20;;;11.50;1.00;;;;;;5094796;28;20444;-55
2022/04/30 05:24:17;;;;;;;8.90;7.70;;;11.60;1.00;;;;;;5098093;28;20183;-56
2022/04/30 05:26:43;;;;;;;9.57;8.50;;;11.70;1.00;;;;;;5104843;28;20236;-55
2022/04/30 05:29:08;;;;;;;11.30;8.00;;;11.70;1.00;;;;;;5107476;28;20190;-54
2022/04/30 05:31:34;;;;;;;8.73;7.93;;;11.70;1.00;;;;;;5099848;28;20179;-55
2022/04/30 05:33:59;;;;;;;12.97;8.40;;;11.80;1.00;;;;;;5099146;28;20239;-55
2022/04/30 05:36:25;;;;;;;9.10;8.17;;;11.80;1.00;;;;;;5105558;28;20186;-53
2022/04/30 05:38:51;;;;;;;8.30;7.50;;;11.80;1.00;;;;;;5107177;28;20255;-56
2022/04/30 05:41:17;;;;;;;10.07;8.23;;;12.00;1.00;;;;;;5076553;28;20267;-55
2022/04/30 05:43:43;;;;;;;10.70;8.00;;;12.00;1.00;;;;;;5097350;28;22418;-54
2022/04/30 05:46:09;;;;;;;7.57;6.77;;;;;;;;;;5105605;28;20443;-56
2022/04/30 05:48:35;;;;;;;11.13;7.87;;;12.20;1.00;;;;;;5104115;28;20459;-53
2022/04/30 05:51:05;;;;;;;12.10;8.27;;;12.40;1.00;;;;;;5098932;28;20451;-54
2022/04/30 05:53:30;;;;;;;10.20;8.50;;;12.40;1.00;;;;;;5094475;28;20190;-52
2022/04/30 05:55:56;;;;;;;8.83;7.87;;;12.60;1.00;;;;;;5101202;28;20451;-55
2022/04/30 05:58:22;;;;;;;9.90;8.30;;;12.50;1.00;;;;;;5100778;28;20471;-57
2022/04/30 06:00:48;;;;;;;9.17;8.27;;;;;;;;;;5100843;28;20936;-55
2022/04/30 06:03:14;;;;;;;10.93;6.63;;;12.80;1.00;;;;;;5092513;28;20191;-54
2022/04/30 06:05:39;;;;;;;8.57;7.20;;;13.00;1.00;;;;;;5104477;28;20439;-52
2022/04/30 06:08:06;;;;;;;10.50;8.33;;;13.00;1.00;;;;;;5103588;28;20216;-55
2022/04/30 06:10:31;;;;;;;11.20;8.23;;;13.00;1.00;;;;;;5092791;28;20219;-54
2022/04/30 06:12:57;;;;;;;8.60;7.70;;;13.00;1.00;;;;;;5105191;28;20495;-55
2022/04/30 06:15:23;;;;;;;9.00;8.10;;;13.00;1.00;;;;;;5094489;28;20273;-55
2022/04/30 06:17:48;;;;;;;9.30;7.37;;;13.00;1.00;;;;;;5095835;28;20209;-55
2022/04/30 06:20:14;;;;;;;9.83;7.97;;;13.10;1.00;;;;;;5098889;28;20209;-56
2022/04/30 06:22:40;;;;;;;9.20;7.77;;;;;;;;;;5104904;28;20235;-54
2022/04/30 06:25:06;;;;;;;9.17;7.63;;;13.20;1.00;;;;;;5099692;28;20666;-54
2022/04/30 06:27:32;;;;;;;10.43;8.50;;;13.00;1.00;;;;;;5100645;28;20944;-55
2022/04/30 06:29:59;;;;;;;9.90;8.33;;;13.20;1.00;;;;;;5103104;28;20443;-55
2022/04/30 06:32:24;;;;;;;8.63;7.80;;;13.20;1.00;;;;;;5094781;28;20472;-54
2022/04/30 06:34:50;;;;;;;9.63;8.63;;;13.60;1.00;;;;;;5102164;28;20495;-54
2022/04/30 06:37:17;;;;;;;9.67;7.93;;;13.60;1.00;;;;;;5105671;28;20463;-56
2022/04/30 06:39:45;;;;;;;8.50;7.67;;;13.70;1.00;;;;;;5101937;28;20205;-55
2022/04/30 06:42:11;;;;;;;9.50;8.10;;;13.80;1.00;;;;;;5109394;28;20455;-52
2022/04/30 06:44:36;;;;;;;9.77;7.90;;;13.90;1.00;;;;;;5096179;28;22021;-54
2022/04/30 06:47:02;;;;;;;9.90;7.73;;;14.20;1.00;;;;;;5103656;28;20186;-54
2022/04/30 06:49:27;;;;;;;9.70;7.00;;;14.50;1.00;;;;;;5109560;28;20338;-54
2022/04/30 06:51:53;;;;;;;8.13;7.33;;;14.60;1.00;;;;;;5103354;28;20189;-56
2022/04/30 06:57:07;;;;;;;7.87;7.10;;;15.10;1.00;;;;;;5096589;28;20221;-53
2022/04/30 06:59:36;;;;;;;8.10;7.30;;;15.20;1.00;;;;;;5102997;28;20455;-56
2022/04/30 07:02:07;;;;;;;8.57;7.33;;;15.30;1.00;;;;;;5098721;28;20459;-58
2022/04/30 07:04:33;;;;;;;9.20;7.77;;;15.40;1.00;;;;;;5103025;28;20441;-57
2022/04/30 07:06:59;;;;;;;8.13;7.30;;;15.50;1.00;;;;;;5100019;28;20494;-56
2022/04/30 07:09:28;;;;;;;8.87;7.63;;;15.50;1.00;;;;;;5097265;28;20536;-55
2022/04/30 07:11:54;;;;;;;11.77;7.97;;;15.40;1.00;;;;;;5099354;28;20443;-56
2022/04/30 07:14:20;;;;;;;7.33;6.63;;;15.50;1.00;;;;;;5101637;28;20455;-54
2022/04/30 07:16:45;;;;;;;8.60;7.70;;;15.50;1.00;;;;;;5102443;28;20453;-55
2022/04/30 07:19:11;;;;;;;9.97;7.70;;;15.70;1.00;;;;;;5075566;28;20179;-55
2022/04/30 07:21:37;;;;;;;9.60;7.53;;;;;;;;;;5101662;28;20265;-56
2022/04/30 07:24:03;;;;;;;12.27;7.30;;;16.10;1.00;;;;;;5105963;28;20182;-56
2022/04/30 07:26:28;;;;;;;8.13;7.43;;;16.30;1.00;;;;;;5107541;28;21053;-53
2022/04/30 07:28:54;;;;;;;7.57;6.67;;;16.40;1.00;;;;;;5106025;28;20492;-53
2022/04/30 07:31:20;;;;;;;10.43;8.03;;;16.50;1.00;;;;;;5105917;28;20206;-56
2022/04/30 07:33:47;;;;;;;9.13;7.67;;;16.40;1.00;;;;;;5099920;28;20201;-55
2022/04/30 07:36:12;;;;;;;8.87;7.53;;;16.30;1.00;;;;;;5079848;28;20285;-55
2022/04/30 07:38:39;;;;;;;9.47;7.80;;;16.50;1.00;;;;;;5107175;28;20478;-53
2022/04/30 07:41:05;;;;;;;8.70;7.70;;;16.60;1.00;;;;;;5080586;28;20233;-55
2022/04/30 07:43:31;;;;;;;12.00;8.93;;;16.70;1.00;;;;;;5099853;28;20956;-55
2022/04/30 07:45:56;;;;;;;9.07;8.00;;;16.60;1.00;;;;;;5103765;28;20447;-56
2022/04/30 07:48:22;;;;;;;7.70;6.90;;;16.60;1.00;;;;;;5104616;28;20178;-53
2022/04/30 07:50:47;;;;;;;9.13;7.97;;;16.50;1.00;;;;;;5075066;28;20186;-53
2022/04/30 07:53:15;;;;;;;8.93;7.27;;;16.40;1.00;;;;;;5098374;28;20197;-54
2022/04/30 07:55:42;;;;;;;9.17;8.13;;;16.60;1.00;;;;;;5100113;28;20181;-54
2022/04/30 07:58:08;;;;;;;8.87;7.50;;;16.80;1.00;;;;;;5100973;28;20480;-53
2022/04/30 08:00:34;;;;;;;8.33;7.53;;;16.80;1.00;;;;;;5104916;28;20455;-54
2022/04/30 08:03:03;;;;;;;9.37;8.57;;;16.90;1.00;;;;;;5096474;28;20803;-54
2022/04/30 08:05:29;;;;;;;10.13;9.00;;;16.90;1.00;;;;;;5103528;28;20202;-53
2022/04/30 08:07:55;;;;;;;13.33;8.77;;;16.80;1.00;;;;;;5098325;28;20452;-55
2022/04/30 08:10:21;;;;;;;9.40;8.50;;;16.80;1.00;;;;;;5102592;28;20194;-56
2022/04/30 08:12:46;;;;;;;10.20;9.20;;;16.80;1.00;;;;;;5103370;28;20266;-56
2022/04/30 08:15:12;;;;;;;9.50;8.60;;;16.80;1.00;;;;;;5102047;28;20490;-55
2022/04/30 08:17:40;;;;;;;8.90;8.00;;;16.80;1.00;;;;;;5095776;28;20233;-56
2022/04/30 08:20:08;;;;;;;8.50;7.20;;;17.00;1.00;;;;;;5102515;28;21035;-53
2022/04/30 08:22:34;;;;;;;9.53;7.80;;;17.10;1.00;;;;;;5094311;28;20957;-54
2022/04/30 08:25:03;;;;;;;13.43;9.50;;;17.00;1.00;;;;;;5096929;28;20530;-55
2022/04/30 08:27:29;;;;;;;10.33;6.93;;;17.10;1.00;;;;;;5100717;28;20454;-55
2022/04/30 08:29:54;;;;;;;8.93;7.47;;;17.10;1.00;;;;;;5101874;28;20439;-56
2022/04/30 08:32:27;;;;;;;9.63;7.67;;;17.20;1.00;;;;;;5094951;28;20530;-54
2022/04/30 08:34:53;;;;;;;9.33;8.40;;;17.30;1.00;;;;;;5101863;28;20422;-56
2022/04/30 08:37:19;;;;;;;8.27;7.47;;;17.30;1.00;;;;;;5096080;28;20464;-55
2022/04/30 08:39:45;;;;;;;7.93;6.80;;;17.20;1.00;;;;;;5105418;28;20484;-56
2022/04/30 08:42:13;;;;;;;8.30;7.50;;;17.50;1.00;;;;;;5097266;28;20447;-55
2022/04/30 08:44:39;;;;;;;11.43;8.40;;;18.00;1.00;;;;;;5101987;28;20484;-56
2022/04/30 08:47:06;;;;;;;11.30;7.80;;;22.20;1.00;;;;;;5077862;28;20445;-57
2022/04/30 08:49:31;;;;;;;9.60;8.20;;;18.40;1.00;;;;;;5097003;28;20436;-55
2022/04/30 08:51:57;;;;;;;10.57;8.27;;;18.50;1.00;;;;;;5093167;28;20446;-55
2022/04/30 08:54:24;;;;;;;9.50;8.23;;;18.60;1.00;;;;;;5095202;28;20452;-55
2022/04/30 08:56:56;;;;;;;11.73;8.00;;;19.00;1.00;;;;;;5099318;28;20193;-56
2022/04/30 08:59:23;;;;;;;9.83;7.77;;;19.80;1.00;;;;;;5104407;28;20796;-55
2022/04/30 09:01:50;;;;;;;9.27;8.37;;;19.70;1.00;;;;;;5099608;28;21044;-56
2022/04/30 09:04:17;;;;;;;10.93;8.23;;;20.00;1.00;;;;;;5101817;28;20489;-57
2022/04/30 09:06:48;;;;;;;8.33;7.60;;;20.40;1.00;;;;;;5104246;28;20746;-56
2022/04/30 09:09:30;;;;;;;9.30;8.30;;;20.40;1.00;;;;;;5103794;28;20727;-56
2022/04/30 09:12:14;;;;;;;8.80;7.90;;;24.00;1.00;;;;;;5098426;28;20462;-56
2022/04/30 09:14:41;;;;;;;10.30;9.13;;;20.00;1.00;;;;;;5106906;28;20493;-55
2022/04/30 09:17:09;;;;;;;8.93;8.13;;;20.00;1.00;;;;;;5109064;28;20442;-56
2022/04/30 09:19:56;;;;;;;8.37;7.57;;;19.50;1.00;;;;;;5098589;28;20470;-55
2022/04/30 09:22:35;;;;;;;9.97;8.23;;;19.50;1.00;;;;;;5098398;28;20451;-55
2022/04/30 09:25:03;;;;;;;9.20;8.30;;;19.40;1.00;;;;;;5096871;28;20455;-54
2022/04/30 09:27:29;;;;;;;10.00;8.00;;;19.70;1.00;;;;;;5097318;28;20448;-57
2022/04/30 09:29:55;;;;;;;10.53;9.00;;;19.90;1.00;;;;;;5099802;28;20463;-54
2022/04/30 09:32:26;;;;;;;13.60;10.37;;;19.90;1.00;;;;;;5101603;28;20237;-56
2022/04/30 09:37:43;;;;;;;8.80;7.90;;;20.10;1.00;;;;;;5096840;28;20507;-57
2022/04/30 09:40:15;;;;;;;8.23;7.43;;;20.00;1.00;;;;;;5096251;28;20464;-55
2022/04/30 09:42:42;;;;;;;9.57;8.17;;;19.90;1.00;;;;;;5100742;28;20520;-55
2022/04/30 09:45:08;;;;;;;9.77;8.37;;;20.10;1.00;;;;;;5092457;28;20444;-55
2022/04/30 09:47:35;;;;;;;11.80;8.30;;;20.30;1.00;;;;;;5103363;28;20849;-56
2022/04/30 09:55:34;;;;;;;10.30;8.50;;;20.60;1.00;;;;;;5084945;28;20508;-56
2022/04/30 09:58:04;;;;;;;8.80;7.47;;;20.30;1.00;;;;;;5092908;28;20472;-56
2022/04/30 10:00:33;;;;;;;8.60;7.70;;;20.10;1.00;;;;;;5093054;28;20449;-56
2022/04/30 10:03:02;;;;;;;9.90;8.87;;;20.20;1.00;;;;;;5097341;28;20476;-56
2022/04/30 10:05:30;;;;;;;9.53;8.53;;;20.60;1.00;;;;;;5080325;28;20451;-55
2022/04/30 10:07:56;;;;;;;9.93;8.90;;;20.60;1.00;;;;;;5079858;28;21010;-57
2022/04/30 10:10:31;;;;;;;10.53;9.27;;;20.40;1.00;;;;;;5096785;28;20447;-56
2022/04/30 10:13:15;;;;;;;10.13;9.07;;;20.40;1.00;;;;;;5103707;28;20196;-56
2022/04/30 10:15:49;;;;;;;9.50;8.10;;;20.50;1.00;;;;;;5094450;28;20989;-56
2022/04/30 10:18:17;;;;;;;9.87;8.80;;;20.80;1.00;;;;;;5107510;28;20553;-56
2022/04/30 10:20:56;;;;;;;9.83;8.83;;;21.30;1.00;;;;;;5101300;28;20787;-56
2022/04/30 10:23:21;;;;;;;9.47;8.50;;;21.50;1.00;;;;;;5104620;28;20440;-56
2022/04/30 10:25:48;;;;;;;9.67;8.40;;;21.50;1.00;;;;;;5101629;28;20796;-56
2022/04/30 10:28:17;;;;;;;12.00;9.20;;;21.90;1.00;;;;;;5100719;28;20186;-56
2022/04/30 10:30:44;;;;;;;10.07;9.00;;;21.90;1.00;;;;;;5103972;28;20502;-57
2022/04/30 10:33:10;;;;;;;11.17;8.10;;;21.60;1.00;;;;;;5105470;28;20443;-57
2022/04/30 10:35:40;;;;;;;10.53;8.50;;;21.70;1.00;;;;;;5101269;28;20456;-57
2022/04/30 10:38:09;;;;;;;10.47;9.30;;;21.90;1.00;;;;;;5103909;28;20468;-57
2022/04/30 10:40:51;;;;;;;9.90;8.90;;;22.20;1.00;;;;;;5103133;28;20444;-54
2022/04/30 10:43:18;;;;;;;9.77;8.70;;;22.00;1.00;;;;;;5104457;28;20479;-57
2022/04/30 10:45:43;;;;;;;10.40;9.30;;;21.30;1.00;;;;;;5106798;28;20513;-57
2022/04/30 10:48:09;;;;;;;9.77;8.87;;;21.40;1.00;;;;;;5102281;28;20495;-56
2022/04/30 10:50:35;;;;;;;10.43;9.20;;;20.90;1.00;;;;;;5102812;28;20312;-56
2022/04/30 10:53:01;;;;;;;9.53;8.60;;;;;;;;;;5098732;28;20194;-58
2022/04/30 10:55:27;;;;;;;12.83;9.73;;;21.10;1.00;;;;;;5103746;28;20262;-60
2022/04/30 10:57:53;;;;;;;9.23;8.30;;;21.40;1.00;;;;;;5078137;28;20435;-59
2022/04/30 11:00:21;;;;;;;9.60;8.47;;;;;;;;;;5101488;28;20506;-60
2022/04/30 11:02:47;;;;;;;11.37;8.50;;;21.70;1.00;;;;;;5108059;28;20494;-60
2022/04/30 11:05:22;;;;;;;12.40;8.20;;;21.80;1.00;;;;;;5102875;28;20519;-60
2022/04/30 11:07:48;;;;;;;9.63;8.73;;;21.80;1.00;;;;;;5098362;28;20443;-60
2022/04/30 11:10:13;;;;;;;9.90;8.90;;;22.00;1.00;;;;;;5104737;28;20438;-61
2022/04/30 11:12:39;;;;;;;11.90;9.40;;;22.00;1.00;;;;;;5085692;28;20445;-60
2022/04/30 11:15:05;;;;;;;9.30;8.40;;;22.00;1.00;;;;;;5102226;28;20660;-61
2022/04/30 11:17:42;;;;;;;11.63;9.03;;;22.10;1.00;;;;;;5096587;28;20205;-59
2022/04/30 11:20:09;;;;;;;10.30;9.30;;;22.50;1.00;;;;;;5098479;28;20440;-59
2022/04/30 11:22:34;;;;;;;10.23;9.10;;;22.40;1.00;;;;;;5080503;28;20436;-60
2022/04/30 11:25:00;;;;;;;13.60;8.97;;;22.30;1.00;;;;;;5106313;28;20799;-59
2022/04/30 11:27:30;;;;;;;10.83;9.70;;;22.50;1.00;;;;;;5105602;28;20186;-61
2022/04/30 11:29:55;;;;;;;9.63;8.57;;;22.50;1.00;;;;;;5102456;28;20520;-61
2022/04/30 11:32:29;;;;;;;10.30;9.30;;;22.60;1.00;;;;;;5110157;28;20452;-59
2022/04/30 11:34:59;;;;;;;12.13;9.03;;;22.60;1.00;;;;;;5104914;28;20218;-61
2022/04/30 11:37:25;;;;;;;9.23;8.33;;;22.50;1.00;;;;;;5097753;28;20482;-60
2022/04/30 11:39:50;;;;;;;9.43;7.60;;;22.50;1.00;;;;;;5103323;28;20447;-60
2022/04/30 11:42:16;;;;;;;9.73;8.80;;;22.50;1.00;;;;;;5095143;28;20231;-60
2022/04/30 11:44:43;;;;;;;9.67;8.67;;;22.40;1.00;;;;;;5111148;28;20194;-60
2022/04/30 11:47:09;;;;;;;10.10;9.00;;;22.30;1.00;;;;;;5109784;28;20193;-61
2022/04/30 11:49:35;;;;;;;10.20;9.20;;;22.10;1.00;;;;;;5105674;28;20576;-60
2022/04/30 11:52:01;;;;;;;11.80;8.93;;;21.80;1.00;;;;;;5101055;28;20186;-61
2022/04/30 11:54:29;;;;;;;10.40;9.50;;;22.10;1.00;;;;;;5099163;28;21047;-60
2022/04/30 11:56:57;;;;;;;10.30;8.80;;;22.20;1.00;;;;;;5097111;28;20549;-60
2022/04/30 11:59:37;;;;;;;9.97;8.53;;;22.10;1.00;;;;;;5108309;28;20463;-61
2022/04/30 12:02:05;;;;;;;8.17;7.03;;;22.40;1.00;;;;;;5110732;28;20561;-60
2022/04/30 12:04:34;;;;;;;9.47;7.03;;;22.60;1.00;;;;;;5099667;28;20494;-60
2022/04/30 12:07:02;;;;;;;9.73;8.50;;;23.00;1.00;;;;;;5109080;28;20460;-59
2022/04/30 12:09:30;;;;;;;10.03;8.70;;;23.30;1.00;;;;;;5100694;28;20570;-61
2022/04/30 12:11:56;;;;;;;8.63;7.70;;;23.40;1.00;;;;;;5099997;28;20452;-60
2022/04/30 12:14:22;;;;;;;8.73;7.87;;;23.30;1.00;;;;;;5107059;28;20995;-60
2022/04/30 12:16:48;;;;;;;8.83;7.93;;;23.30;1.00;;;;;;5110354;28;20443;-59
2022/04/30 12:24:59;;;;;;;8.03;7.23;;;23.20;1.00;;;;;;5095152;28;20987;-59
2022/04/30 12:27:26;;;;;;;9.40;8.50;;;23.20;1.00;;;;;;5082629;28;20495;-60
2022/04/30 12:30:06;;;;;;;9.03;8.20;;;22.50;1.00;;;;;;5108481;28;20960;-60
2022/04/30 12:32:35;;;;;;;11.83;7.90;;;;;;;;;;5094465;28;20452;-60
2022/04/30 12:35:01;;;;;;;7.87;6.77;;;23.00;1.00;;;;;;5093410;28;20440;-61
2022/04/30 12:37:34;;;;;;;8.50;7.80;;;23.40;1.00;;;;;;5096459;28;20730;-60
2022/04/30 12:40:01;;;;;;;8.50;7.00;;;23.50;1.00;;;;;;5105158;28;20471;-60
2022/04/30 12:42:27;;;;;;;9.97;9.07;;;23.90;1.00;;;;;;5107302;28;20474;-60
2022/04/30 12:44:53;;;;;;;8.90;8.00;;;23.90;1.00;;;;;;5097888;28;20444;-61
2022/04/30 12:47:19;;;;;;;9.10;7.97;;;24.20;1.00;;;;;;5104116;28;20927;-62
2022/04/30 12:49:44;;;;;;;8.23;7.30;;;24.30;1.00;;;;;;5075127;28;20186;-62
2022/04/30 12:52:10;;;;;;;8.47;6.90;;;24.20;1.00;;;;;;5099955;28;20201;-62
2022/04/30 12:54:36;;;;;;;9.50;8.60;;;24.00;1.00;;;;;;5110503;28;20287;-61
2022/04/30 12:57:07;;;;;;;7.93;7.13;;;23.90;1.00;;;;;;5095091;28;20186;-61
2022/04/30 12:59:33;;;;;;;9.00;7.73;;;24.00;1.00;;;;;;5106628;28;20933;-61
2022/04/30 13:01:58;;;;;;;8.10;7.40;;;23.60;1.00;;;;;;5080144;28;20443;-61
2022/04/30 13:04:24;;;;;;;9.10;8.30;;;23.00;1.00;;;;;;5096245;28;20818;-60
2022/04/30 13:06:49;;;;;;;8.77;7.10;;;22.50;1.00;;;;;;5104594;28;20183;-61
2022/04/30 13:14:44;;;;;;;8.30;7.50;;;22.20;1.00;;;;;;5104060;28;20467;-60
2022/04/30 13:17:11;;;;;;;7.00;6.33;;;22.10;1.00;;;;;;5107241;28;20451;-61
2022/04/30 13:19:39;;;;;;;7.50;6.70;;;22.10;1.00;;;;;;5095022;28;20439;-60
2022/04/30 13:22:05;;;;;;;7.17;6.60;;;22.00;1.00;;;;;;5084004;28;20453;-60
2022/04/30 13:24:33;;;;;;;9.57;7.37;;;22.30;1.00;;;;;;5104210;28;20459;-60
2022/04/30 13:26:59;;;;;;;7.07;6.20;;;22.40;1.00;;;;;;5099007;28;20186;-60
2022/04/30 13:29:25;;;;;;;6.97;6.37;;;22.30;1.00;;;;;;5096652;28;20482;-60
2022/04/30 13:31:50;;;;;;;7.23;6.57;;;22.40;1.00;;;;;;5100827;28;20572;-61
2022/04/30 13:34:16;;;;;;;8.37;7.13;;;22.30;1.00;;;;;;5103838;28;20186;-62
2022/04/30 13:36:42;;;;;;;8.80;6.40;;;22.30;1.00;;;;;;5094679;28;20194;-61
2022/04/30 13:39:08;;;;;;;8.00;6.03;;;22.40;1.00;;;;;;5097650;28;20213;-60
2022/04/30 13:41:33;;;;;;;7.10;6.50;;;22.50;1.00;;;;;;5105416;28;20930;-61